createdAt,value
2023-01-13T00:01:26.778Z,56.46
2023-01-13T00:03:53.620Z,56.63
2023-01-13T00:06:27.740Z,56.46
2023-01-13T00:08:54.502Z,56.51
2023-01-13T00:11:21.742Z,56.42
2023-01-13T00:13:48.116Z,56.72
2023-01-13T00:16:17.112Z,56.41
2023-01-13T00:18:43.925Z,56.49
2023-01-13T00:21:17.597Z,56.62
2023-01-13T00:23:44.644Z,56.63
2023-01-13T00:26:13.410Z,56.41
2023-01-13T00:28:39.817Z,56.40
2023-01-13T00:31:15.241Z,56.61
2023-01-13T00:33:41.771Z,56.47
2023-01-13T00:36:09.967Z,56.63
2023-01-13T00:38:36.599Z,56.48
2023-01-13T00:41:08.363Z,56.73
2023-01-13T00:43:36.197Z,56.53
2023-01-13T00:46:06.811Z,56.61
2023-01-13T00:48:33.770Z,56.38
2023-01-13T00:51:04.714Z,56.62
2023-01-13T00:53:35.472Z,56.55
2023-01-13T00:56:14.308Z,56.55
2023-01-13T00:58:41.064Z,56.47
2023-01-13T01:01:12.066Z,56.31
2023-01-13T01:03:38.531Z,56.62
2023-01-13T01:06:12.141Z,56.60
2023-01-13T01:08:38.518Z,56.52
2023-01-13T01:11:07.236Z,56.64
2023-01-13T01:13:33.922Z,56.46
2023-01-13T01:16:00.456Z,56.59
2023-01-13T01:18:26.827Z,56.64
2023-01-13T01:20:53.236Z,56.37
2023-01-13T01:23:19.617Z,56.53
2023-01-13T01:25:45.961Z,56.57
2023-01-13T01:28:12.415Z,56.42
2023-01-13T01:30:39.410Z,56.59
2023-01-13T01:33:06.122Z,56.37
2023-01-13T01:35:32.472Z,56.79
2023-01-13T01:37:58.860Z,56.64
2023-01-13T01:40:27.024Z,56.55
2023-01-13T01:43:11.928Z,56.53
2023-01-13T01:45:38.352Z,56.54
2023-01-13T01:48:06.072Z,56.51
2023-01-13T01:50:32.755Z,56.46
2023-01-13T01:53:04.683Z,56.38
2023-01-13T01:55:34.358Z,56.42
2023-01-13T01:58:22.076Z,56.55
2023-01-13T02:00:49.037Z,56.43
2023-01-13T02:03:16.363Z,56.45
2023-01-13T02:05:42.783Z,56.41
2023-01-13T02:08:11.755Z,56.47
2023-01-13T02:10:40.095Z,56.41
2023-01-13T02:13:09.556Z,55.90
2023-01-13T02:15:57.825Z,56.60
2023-01-13T02:18:41.109Z,56.61
2023-01-13T02:21:10.157Z,56.48
2023-01-13T02:24:17.131Z,56.69
2023-01-13T02:27:24.032Z,56.67
2023-01-13T02:30:16.762Z,56.67
2023-01-13T02:32:55.541Z,56.61
2023-01-13T02:35:27.565Z,56.55
2023-01-13T02:37:54.751Z,56.41
2023-01-13T02:40:38.159Z,56.47
2023-01-13T02:43:35.304Z,56.43
2023-01-13T02:46:08.540Z,56.48
2023-01-13T02:48:36.079Z,56.75
2023-01-13T02:51:09.579Z,56.45
2023-01-13T02:53:39.969Z,56.54
2023-01-13T02:56:07.136Z,56.44
2023-01-13T02:58:35.051Z,56.62
2023-01-13T03:01:01.551Z,56.60
2023-01-13T03:03:28.107Z,56.51
2023-01-13T03:06:05.459Z,56.40
2023-01-13T03:08:43.456Z,56.38
2023-01-13T03:11:12.022Z,56.40
2023-01-13T03:14:09.720Z,56.66
2023-01-13T03:16:55.226Z,56.39
2023-01-13T03:19:24.790Z,56.46
2023-01-13T03:21:59.433Z,56.43
2023-01-13T03:24:35.374Z,56.38
2023-01-13T03:27:05.784Z,56.42
2023-01-13T03:29:36.438Z,56.34
2023-01-13T03:32:17.564Z,56.43
2023-01-13T03:35:22.073Z,56.50
2023-01-13T03:38:03.487Z,56.51
2023-01-13T03:40:33.650Z,56.48
2023-01-13T03:43:35.249Z,56.54
2023-01-13T03:46:10.687Z,56.47
2023-01-13T03:48:39.252Z,56.39
2023-01-13T03:51:07.228Z,56.35
2023-01-13T03:53:37.680Z,56.33
2023-01-13T03:56:38.763Z,56.60
2023-01-13T03:59:10.335Z,56.46
2023-01-13T04:01:52.926Z,56.32
2023-01-13T04:04:28.308Z,56.34
2023-01-13T04:07:21.858Z,56.42
2023-01-13T04:09:54.673Z,56.35
2023-01-13T04:12:53.359Z,56.31
2023-01-13T04:15:22.876Z,56.50
2023-01-13T04:17:50.449Z,56.26
2023-01-13T04:20:17.147Z,56.07
2023-01-13T04:22:43.551Z,56.45
2023-01-13T04:25:10.283Z,56.29
2023-01-13T04:27:36.680Z,56.29
2023-01-13T04:30:04.056Z,56.29
2023-01-13T04:32:30.679Z,56.56
2023-01-13T04:34:57.043Z,56.28
2023-01-13T04:37:23.476Z,56.04
2023-01-13T04:39:49.919Z,56.59
2023-01-13T04:42:16.336Z,55.99
2023-01-13T04:44:42.710Z,56.05
2023-01-13T04:47:09.129Z,56.18
2023-01-13T04:49:35.552Z,56.09
2023-01-13T04:52:03.733Z,56.13
2023-01-13T04:54:30.141Z,56.20
2023-01-13T04:56:56.543Z,56.05
2023-01-13T04:59:22.955Z,56.03
2023-01-13T05:01:49.552Z,56.03
2023-01-13T05:04:17.038Z,56.05
2023-01-13T05:06:43.575Z,56.16
2023-01-13T05:09:12.332Z,55.94
2023-01-13T05:11:57.973Z,56.06
2023-01-13T05:14:42.684Z,55.82
2023-01-13T05:17:10.079Z,56.09
2023-01-13T05:19:40.687Z,56.01
2023-01-13T05:22:25.604Z,55.88
2023-01-13T05:25:10.356Z,55.90
2023-01-13T05:27:36.737Z,56.07
2023-01-13T05:30:03.777Z,55.83
2023-01-13T05:32:30.185Z,55.89
2023-01-13T05:34:56.807Z,55.78
2023-01-13T05:37:24.065Z,55.80
2023-01-13T05:40:09.018Z,56.00
2023-01-13T05:42:54.413Z,55.90
2023-01-13T05:45:20.796Z,55.81
2023-01-13T05:47:47.251Z,56.05
2023-01-13T05:50:13.696Z,55.93
2023-01-13T05:52:40.124Z,55.87
2023-01-13T05:55:06.802Z,55.85
2023-01-13T05:57:33.252Z,55.71
2023-01-13T05:59:59.663Z,55.78
2023-01-13T06:02:26.628Z,55.96
2023-01-13T06:04:52.997Z,55.67
2023-01-13T06:07:19.445Z,55.75
2023-01-13T06:09:45.850Z,55.82
2023-01-13T06:12:12.893Z,55.61
2023-01-13T06:14:42.178Z,55.47
2023-01-13T06:17:10.378Z,55.77
2023-01-13T06:19:36.792Z,55.53
2023-01-13T06:22:11.786Z,55.61
2023-01-13T06:24:38.226Z,55.63
2023-01-13T06:27:06.319Z,55.52
2023-01-13T06:29:33.468Z,55.40
2023-01-13T06:32:03.726Z,55.57
2023-01-13T06:34:30.262Z,55.46
2023-01-13T06:36:56.822Z,55.41
2023-01-13T06:39:25.188Z,55.52
2023-01-13T06:42:12.693Z,55.50
2023-01-13T06:44:39.425Z,55.21
2023-01-13T06:47:06.393Z,55.55
2023-01-13T06:49:32.761Z,55.15
2023-01-13T06:51:59.188Z,55.21
2023-01-13T06:54:27.709Z,55.02
2023-01-13T06:56:54.255Z,55.24
2023-01-13T06:59:20.701Z,54.93
2023-01-13T07:01:47.302Z,55.08
2023-01-13T07:04:13.911Z,54.91
2023-01-13T07:06:40.290Z,54.97
2023-01-13T07:09:06.968Z,54.75
2023-01-13T07:11:33.458Z,55.21
2023-01-13T07:14:20.036Z,54.89
2023-01-13T07:16:46.735Z,54.65
2023-01-13T07:19:13.151Z,54.53
2023-01-13T07:21:39.553Z,54.66
2023-01-13T07:24:06.105Z,54.48
2023-01-13T07:26:32.523Z,54.87
2023-01-13T07:28:58.883Z,54.62
2023-01-13T07:31:25.900Z,54.89
2023-01-13T07:33:52.370Z,54.61
2023-01-13T07:36:18.807Z,54.48
2023-01-13T07:38:45.273Z,54.52
2023-01-13T07:41:31.495Z,54.49
2023-01-13T07:43:57.896Z,54.58
2023-01-13T07:46:24.321Z,54.36
2023-01-13T07:48:50.767Z,54.17
2023-01-13T07:51:17.177Z,54.25
2023-01-13T07:53:43.648Z,54.23
2023-01-13T07:56:10.343Z,54.51
2023-01-13T07:58:37.141Z,54.15
2023-01-13T08:01:10.847Z,54.10
2023-01-13T08:03:37.712Z,54.23
2023-01-13T08:06:04.882Z,54.26
2023-01-13T08:08:31.263Z,54.43
2023-01-13T08:11:01.800Z,54.05
2023-01-13T08:13:28.269Z,54.25
2023-01-13T08:16:00.672Z,54.02
2023-01-13T08:18:27.163Z,54.01
2023-01-13T08:20:53.705Z,54.13
2023-01-13T08:23:21.529Z,54.02
2023-01-13T08:25:48.409Z,53.79
2023-01-13T08:28:15.908Z,53.75
2023-01-13T08:30:42.499Z,53.93
2023-01-13T08:33:11.138Z,54.02
2023-01-13T08:35:38.563Z,53.71
2023-01-13T08:38:05.922Z,53.75
2023-01-13T08:40:32.818Z,53.94
2023-01-13T08:42:59.915Z,53.90
2023-01-13T08:45:26.312Z,53.96
2023-01-13T08:47:52.710Z,53.54
2023-01-13T08:50:19.570Z,53.86
2023-01-13T08:52:45.931Z,53.58
2023-01-13T08:55:12.373Z,53.58
2023-01-13T08:57:38.843Z,53.78
2023-01-13T09:00:07.115Z,53.42
2023-01-13T09:02:33.664Z,53.82
2023-01-13T09:05:02.825Z,53.76
2023-01-13T09:07:29.882Z,53.60
2023-01-13T09:09:56.981Z,53.61
2023-01-13T09:12:42.201Z,53.66
2023-01-13T09:15:08.991Z,53.31
2023-01-13T09:17:35.405Z,53.68
2023-01-13T09:20:01.864Z,53.67
2023-01-13T09:22:28.289Z,53.67
2023-01-13T09:24:55.215Z,53.47
2023-01-13T09:27:22.686Z,53.62
2023-01-13T09:29:49.377Z,53.29
2023-01-13T09:32:16.157Z,53.33
2023-01-13T09:35:00.753Z,53.38
2023-01-13T09:37:38.331Z,53.29
2023-01-13T09:40:23.861Z,53.01
2023-01-13T09:43:17.026Z,53.08
2023-01-13T09:45:53.859Z,53.31
2023-01-13T09:48:26.390Z,52.86
2023-01-13T09:50:58.516Z,53.30
2023-01-13T09:53:31.564Z,53.02
2023-01-13T09:55:58.027Z,53.10
2023-01-13T09:58:27.342Z,52.96
2023-01-13T10:01:00.442Z,53.00
2023-01-13T10:03:31.795Z,52.99
2023-01-13T10:06:15.552Z,52.59
2023-01-13T10:08:43.090Z,53.03
2023-01-13T10:11:35.070Z,52.93
2023-01-13T10:14:12.865Z,52.81
2023-01-13T10:17:12.327Z,52.97
2023-01-13T10:19:42.538Z,52.83
2023-01-13T10:22:18.024Z,52.98
2023-01-13T10:25:02.656Z,52.86
2023-01-13T10:27:29.972Z,53.05
2023-01-13T10:29:56.400Z,53.13
2023-01-13T10:32:22.953Z,52.84
2023-01-13T10:34:51.317Z,52.98
2023-01-13T10:37:28.601Z,52.50
2023-01-13T10:39:57.464Z,52.93
2023-01-13T10:42:24.484Z,52.96
2023-01-13T10:45:00.859Z,52.27
2023-01-13T10:47:35.934Z,52.63
2023-01-13T10:50:11.454Z,52.59
2023-01-13T10:52:42.871Z,52.74
2023-01-13T10:55:30.571Z,52.32
2023-01-13T10:57:57.114Z,52.48
2023-01-13T11:00:31.892Z,52.40
2023-01-13T11:03:21.000Z,52.17
2023-01-13T11:05:48.884Z,52.26
2023-01-13T11:08:20.588Z,52.46
2023-01-13T11:10:50.184Z,52.09
2023-01-13T11:13:18.017Z,52.40
2023-01-13T11:15:55.391Z,52.50
2023-01-13T11:18:28.065Z,52.16
2023-01-13T11:20:55.707Z,52.27
2023-01-13T11:23:27.418Z,52.03
2023-01-13T11:26:00.404Z,52.01
2023-01-13T11:28:44.796Z,51.70
2023-01-13T11:31:33.478Z,51.70
2023-01-13T11:34:05.052Z,51.89
2023-01-13T11:36:39.432Z,51.96
2023-01-13T11:39:21.332Z,51.90
2023-01-13T11:42:08.468Z,51.91
2023-01-13T11:44:42.113Z,52.44
2023-01-13T11:47:10.761Z,52.07
2023-01-13T11:49:38.358Z,52.30
2023-01-13T11:52:23.883Z,51.70
2023-01-13T11:55:27.916Z,51.83
2023-01-13T11:58:14.328Z,51.85
2023-01-13T12:00:57.373Z,51.80
2023-01-13T12:03:31.897Z,51.91
2023-01-13T12:06:37.254Z,51.90
2023-01-13T12:09:50.157Z,51.96
2023-01-13T12:12:19.382Z,51.88
2023-01-13T12:15:07.951Z,51.86
2023-01-13T12:17:51.794Z,51.55
2023-01-13T12:20:24.181Z,51.63
2023-01-13T12:22:52.772Z,51.91
2023-01-13T12:25:46.270Z,51.35
2023-01-13T12:28:24.287Z,51.47
2023-01-13T12:30:54.397Z,51.41
2023-01-13T12:33:28.628Z,51.10
2023-01-13T12:36:11.609Z,51.09
2023-01-13T12:38:48.656Z,51.15
2023-01-13T12:41:24.687Z,51.09
2023-01-13T12:44:10.769Z,51.01
2023-01-13T12:46:56.055Z,51.23
2023-01-13T12:49:22.394Z,51.15
2023-01-13T12:51:51.785Z,51.31
2023-01-13T12:54:30.420Z,50.98
2023-01-13T12:56:57.890Z,51.22
2023-01-13T12:59:24.199Z,51.09
2023-01-13T13:01:52.568Z,51.07
2023-01-13T13:04:43.133Z,51.10
2023-01-13T13:07:14.198Z,50.89
2023-01-13T13:09:46.253Z,51.04
2023-01-13T13:13:03.789Z,51.24
2023-01-13T13:15:33.816Z,51.39
2023-01-13T13:18:32.628Z,50.83
2023-01-13T13:21:11.360Z,50.75
2023-01-13T13:23:49.375Z,50.96
2023-01-13T13:26:21.643Z,50.96
2023-01-13T13:29:36.053Z,50.53
2023-01-13T13:32:21.260Z,50.96
2023-01-13T13:35:07.998Z,50.75
2023-01-13T13:37:59.589Z,50.73
2023-01-13T13:40:47.489Z,50.55
2023-01-13T13:43:33.494Z,50.76
2023-01-13T13:46:18.603Z,51.02
2023-01-13T13:48:52.261Z,51.14
2023-01-13T13:51:32.285Z,50.84
2023-01-13T13:53:59.363Z,50.90
2023-01-13T13:56:29.420Z,50.79
2023-01-13T13:58:56.068Z,50.85
2023-01-13T14:01:31.220Z,50.86
2023-01-13T14:04:04.508Z,50.63
2023-01-13T14:06:32.755Z,50.77
2023-01-13T14:08:59.096Z,50.72
2023-01-13T14:11:32.245Z,50.66
2023-01-13T14:14:03.026Z,50.35
2023-01-13T14:16:29.735Z,50.75
2023-01-13T14:18:56.149Z,50.49
2023-01-13T14:21:26.012Z,50.27
2023-01-13T14:23:55.016Z,50.53
2023-01-13T14:26:27.283Z,50.56
2023-01-13T14:28:54.333Z,50.38
2023-01-13T14:31:20.939Z,50.38
2023-01-13T14:33:49.856Z,50.82
2023-01-13T14:36:22.073Z,50.34
2023-01-13T14:39:03.651Z,50.32
2023-01-13T14:41:33.113Z,50.58
2023-01-13T14:44:01.458Z,50.85
2023-01-13T14:46:42.108Z,50.50
2023-01-13T14:49:24.615Z,50.74
2023-01-13T14:51:51.260Z,50.58
2023-01-13T14:54:59.284Z,50.48
2023-01-13T14:57:33.408Z,50.50
2023-01-13T15:00:11.534Z,50.97
2023-01-13T15:02:40.460Z,50.59
2023-01-13T15:05:19.026Z,50.56
2023-01-13T15:07:56.101Z,50.47
2023-01-13T15:10:25.725Z,51.06
2023-01-13T15:12:54.398Z,51.19
2023-01-13T15:15:27.831Z,50.77
2023-01-13T15:17:54.524Z,50.80
2023-01-13T15:20:23.019Z,51.10
2023-01-13T15:22:49.940Z,50.89
2023-01-13T15:25:16.637Z,50.87
2023-01-13T15:27:44.654Z,51.16
2023-01-13T15:30:21.279Z,51.03
2023-01-13T15:32:47.838Z,50.99
2023-01-13T15:35:15.577Z,50.83
2023-01-13T15:37:42.827Z,50.92
2023-01-13T15:40:21.170Z,50.47
2023-01-13T15:43:06.561Z,51.11
2023-01-13T15:45:52.963Z,50.94
2023-01-13T15:48:24.103Z,50.73
2023-01-13T15:50:51.146Z,51.03
2023-01-13T15:53:17.949Z,51.24
2023-01-13T15:55:46.672Z,51.06
2023-01-13T15:58:13.768Z,50.80
2023-01-13T16:00:42.053Z,50.90
2023-01-13T16:03:15.670Z,50.99
2023-01-13T16:05:42.765Z,51.02
2023-01-13T16:08:19.668Z,50.62
2023-01-13T16:10:46.545Z,50.86
2023-01-13T16:13:13.533Z,51.01
2023-01-13T16:15:43.787Z,51.13
2023-01-13T16:18:16.764Z,51.16
2023-01-13T16:20:43.711Z,50.99
2023-01-13T16:23:10.992Z,51.13
2023-01-13T16:25:37.833Z,50.89
2023-01-13T16:28:04.309Z,51.11
2023-01-13T16:30:35.745Z,50.83
2023-01-13T16:33:02.741Z,50.89
2023-01-13T16:35:31.869Z,50.90
2023-01-13T16:37:59.757Z,51.17
2023-01-13T16:40:33.259Z,50.79
2023-01-13T16:43:01.685Z,51.16
2023-01-13T16:45:28.173Z,51.20
2023-01-13T16:47:54.650Z,51.02
2023-01-13T16:50:40.971Z,50.98
2023-01-13T16:53:11.481Z,51.07
2023-01-13T16:55:39.104Z,51.24
2023-01-13T16:58:06.026Z,51.06
2023-01-13T17:00:33.497Z,51.09
2023-01-13T17:03:01.866Z,51.22
2023-01-13T17:05:28.857Z,51.32
2023-01-13T17:07:55.408Z,51.11
2023-01-13T17:10:23.469Z,51.15
2023-01-13T17:12:50.347Z,51.32
2023-01-13T17:15:19.358Z,51.16
2023-01-13T17:17:48.634Z,51.53
2023-01-13T17:20:16.171Z,51.35
2023-01-13T17:22:45.646Z,51.14
2023-01-13T17:25:14.300Z,51.65
2023-01-13T17:27:42.052Z,51.41
2023-01-13T17:30:10.572Z,51.50
2023-01-13T17:32:36.993Z,51.38
2023-01-13T17:35:03.561Z,51.59
2023-01-13T17:37:29.988Z,51.62
2023-01-13T17:39:56.451Z,51.90
2023-01-13T17:42:24.872Z,51.38
2023-01-13T17:44:51.292Z,51.68
2023-01-13T17:47:17.723Z,51.50
2023-01-13T17:49:44.135Z,51.54
2023-01-13T17:52:10.670Z,51.59
2023-01-13T17:54:37.108Z,51.63
2023-01-13T17:57:03.614Z,51.70
2023-01-13T17:59:30.030Z,51.65
2023-01-13T18:01:56.480Z,51.86
2023-01-13T18:04:27.089Z,51.77
2023-01-13T18:06:53.577Z,51.66
2023-01-13T18:09:20.045Z,51.91
2023-01-13T18:11:47.341Z,51.61
2023-01-13T18:14:14.081Z,51.94
2023-01-13T18:16:40.531Z,52.13
2023-01-13T18:19:45.555Z,51.71
2023-01-13T18:22:32.031Z,51.97
2023-01-13T18:25:16.943Z,51.85
2023-01-13T18:27:43.318Z,52.09
2023-01-13T18:30:10.781Z,51.77
2023-01-13T18:32:37.193Z,51.72
2023-01-13T18:35:07.200Z,51.73
2023-01-13T18:37:38.673Z,51.91
2023-01-13T18:40:06.661Z,51.89
2023-01-13T18:42:51.261Z,51.79
2023-01-13T18:45:19.620Z,51.70
2023-01-13T18:47:46.053Z,51.81
2023-01-13T18:50:13.676Z,52.19
2023-01-13T18:52:41.116Z,51.75
2023-01-13T18:55:07.734Z,51.82
2023-01-13T18:57:37.933Z,51.84
2023-01-13T19:00:04.757Z,51.73
2023-01-13T19:02:31.571Z,51.90
2023-01-13T19:04:58.028Z,51.81
2023-01-13T19:07:28.275Z,51.80
2023-01-13T19:10:00.894Z,52.03
2023-01-13T19:12:27.987Z,51.98
2023-01-13T19:14:55.377Z,51.77
2023-01-13T19:17:23.006Z,51.87
2023-01-13T19:19:51.540Z,52.08
2023-01-13T19:22:22.444Z,51.95
2023-01-13T19:24:51.653Z,51.79
2023-01-13T19:27:19.311Z,51.96
2023-01-13T19:29:52.256Z,51.88
2023-01-13T19:32:20.763Z,52.24
2023-01-13T19:34:50.685Z,51.94
2023-01-13T19:37:17.523Z,51.74
2023-01-13T19:39:44.108Z,51.75
2023-01-13T19:42:31.884Z,51.91
2023-01-13T19:45:16.709Z,52.01
2023-01-13T19:47:45.299Z,51.98
2023-01-13T19:50:13.521Z,51.92
2023-01-13T19:52:40.175Z,52.02
2023-01-13T19:55:07.055Z,52.23
2023-01-13T19:57:33.463Z,51.89
2023-01-13T19:59:59.876Z,51.62
2023-01-13T20:02:31.409Z,51.84
2023-01-13T20:04:59.965Z,51.85
2023-01-13T20:07:30.176Z,51.87
2023-01-13T20:09:56.725Z,52.05
2023-01-13T20:12:27.386Z,51.81
2023-01-13T20:14:59.985Z,52.03
2023-01-13T20:17:26.449Z,52.12
2023-01-13T20:19:52.956Z,51.97
2023-01-13T20:22:19.485Z,52.01
2023-01-13T20:24:45.875Z,51.92
2023-01-13T20:27:12.306Z,51.64
2023-01-13T20:29:38.843Z,51.97
2023-01-13T20:32:05.387Z,51.82
2023-01-13T20:34:31.778Z,51.78
2023-01-13T20:36:58.190Z,52.17
2023-01-13T20:39:26.327Z,52.08
2023-01-13T20:42:11.860Z,51.95
2023-01-13T20:44:38.327Z,51.93
2023-01-13T20:47:04.967Z,52.07
2023-01-13T20:49:31.543Z,51.98
2023-01-13T20:51:58.287Z,52.21
2023-01-13T20:54:25.233Z,52.09
2023-01-13T20:56:51.823Z,52.08
2023-01-13T20:59:18.349Z,51.99
2023-01-13T21:01:44.791Z,52.05
2023-01-13T21:04:11.244Z,52.32
2023-01-13T21:06:37.715Z,52.62
2023-01-13T21:09:04.134Z,52.70
2023-01-13T21:11:49.048Z,52.74
2023-01-13T21:14:45.981Z,53.07
2023-01-13T21:17:32.515Z,52.72
2023-01-13T21:19:59.088Z,52.87
2023-01-13T21:22:25.820Z,52.64
2023-01-13T21:24:52.241Z,52.68
2023-01-13T21:27:18.684Z,52.62
2023-01-13T21:29:46.228Z,52.55
2023-01-13T21:32:12.800Z,52.66
2023-01-13T21:34:39.242Z,52.67
2023-01-13T21:37:05.896Z,52.45
2023-01-13T21:39:32.270Z,52.77
2023-01-13T21:42:17.468Z,52.73
2023-01-13T21:45:02.403Z,52.70
2023-01-13T21:47:47.468Z,52.77
2023-01-13T21:50:16.002Z,52.52
2023-01-13T21:52:45.247Z,52.40
2023-01-13T21:55:25.037Z,52.59
2023-01-13T21:57:57.251Z,52.37
2023-01-13T22:00:26.195Z,52.60
2023-01-13T22:02:52.963Z,52.60
2023-01-13T22:05:21.427Z,52.52
2023-01-13T22:07:48.012Z,52.48
2023-01-13T22:10:19.865Z,52.34
2023-01-13T22:12:47.932Z,52.47
2023-01-13T22:15:16.054Z,52.38
2023-01-13T22:17:42.663Z,52.74
2023-01-13T22:20:10.695Z,52.59
2023-01-13T22:22:37.132Z,52.44
2023-01-13T22:25:06.884Z,52.38
2023-01-13T22:27:39.155Z,52.46
2023-01-13T22:30:13.593Z,52.28
2023-01-13T22:32:40.119Z,52.41
2023-01-13T22:35:08.817Z,52.48
2023-01-13T22:37:35.870Z,52.30
2023-01-13T22:40:03.870Z,52.52
2023-01-13T22:42:30.246Z,52.38
2023-01-13T22:44:56.673Z,52.20
2023-01-13T22:47:23.099Z,52.35
2023-01-13T22:49:49.584Z,52.36
2023-01-13T22:52:16.703Z,52.30
2023-01-13T22:54:43.183Z,52.25
2023-01-13T22:57:09.736Z,52.25
2023-01-13T22:59:36.183Z,52.31
2023-01-13T23:02:02.589Z,52.25
2023-01-13T23:04:29.025Z,52.46
2023-01-13T23:06:55.428Z,52.47
2023-01-13T23:09:21.783Z,52.46
2023-01-13T23:11:48.203Z,52.01
2023-01-13T23:14:14.597Z,52.36
2023-01-13T23:16:41.151Z,52.31
2023-01-13T23:19:08.234Z,52.58
2023-01-13T23:21:37.379Z,52.34
2023-01-13T23:24:05.726Z,52.43
2023-01-13T23:26:33.253Z,52.54
2023-01-13T23:29:11.659Z,52.53
2023-01-13T23:31:38.351Z,52.54
2023-01-13T23:34:04.775Z,52.55
2023-01-13T23:36:31.234Z,52.58
2023-01-13T23:38:59.427Z,52.50
2023-01-13T23:41:27.283Z,52.57
2023-01-13T23:43:58.700Z,52.56
2023-01-13T23:46:25.995Z,52.54
2023-01-13T23:48:53.120Z,52.52
2023-01-13T23:51:21.230Z,52.39
2023-01-13T23:53:48.712Z,52.49
2023-01-13T23:56:20.724Z,52.63
2023-01-13T23:58:47.887Z,52.44
